Latest Coastal Weather Observations for Mandora

IDW60701

Issued at 1:23 pm WST Tuesday 30 May 2017 (issued every 10 minutes, with the page automatically refreshed every 10 minutes)

About coastal observations | Map of coastal stations | Coastal observations for WA | Marine services | Other Formats
Station Details ID: 004019 Name: MANDORA Lat: -19.74 Lon: 120.84 Height: 7.5 m
Data from the previous 72 hours. | See also: Recent months at Mandora
Date/Time
WST
Temp
°C
Wind Pressure Rain since
9am
mm
Weather Cloud Vis
km
Sea
Height
m
Swell
Dir  Spd
kts
Gust
kts
hPa Trend Height
m
Period
s
Dir
30/01:00pm 33.6 N 9 12 1014.5 - 0.0 - - - - - - -
30/12:30pm 33.7 NNE 11 17 1014.9 - 0.0 - - - - - - -
30/12:00pm 33.7 NNE 11 17 1015.4 - 0.0 - - - - - - -
30/11:30am 33.3 NE 8 13 1016.0 - 0.0 - - - - - - -
30/11:00am 32.1 E 6 11 1016.4 - 0.0 - - - - - - -
30/10:30am 31.4 E 7 11 1016.7 - 0.0 - - - - - - -
30/10:00am 30.1 E 7 12 1016.9 - 0.0 - - - - - - -
30/09:30am 28.7 ESE 7 11 1017.1 - 0.0 - - - - - - -
30/09:00am 26.2 SE 7 12 1017.0 - 0.0 - - - - - - -
30/08:30am 24.9 ESE 8 15 1017.1 - 0.0 - - - - - - -
30/08:00am 23.1 SE 8 11 1016.7 - 0.0 - - - - - - -
30/07:30am 21.0 SE 7 10 1016.5 - 0.0 - - - - - - -
30/07:00am 19.2 SE 7 10 1016.3 - 0.0 - - - - - - -
30/06:30am 18.4 SE 5 7 1016.0 - 0.0 - - - - - - -
30/06:00am 18.8 SSE 6 8 1015.6 - 0.0 - - - - - - -
30/05:30am 18.5 SSE 7 9 1015.3 - 0.0 - - - - - - -
30/05:00am 18.3 SSE 8 10 1015.0 - 0.0 - - - - - - -
30/04:30am 18.4 SSE 7 10 1015.1 - 0.0 - - - - - - -
30/04:00am 18.2 SSE 5 7 1015.1 - 0.0 - - - - - - -
30/03:30am 17.9 SE 5 6 1015.3 - 0.0 - - - - - - -
30/03:00am 18.2 SSE 4 6 1015.4 - 0.0 - - - - - - -
30/02:30am 19.2 SSE 5 7 1015.0 - 0.0 - - - - - - -
30/02:00am 19.7 SSE 6 8 1015.0 - 0.0 - - - - - - -
30/01:30am 19.8 SE 5 7 1015.2 - 0.0 - - - - - - -
30/01:00am 19.5 SSE 5 7 1015.4 - 0.0 - - - - - - -
30/12:30am 19.9 SSE 5 7 1015.4 - 0.0 - - - - - - -
30/12:00am 19.7 SE 5 7 1015.5 - 0.0 - - - - - - -
 
Date/Time
WST
Temp
°C
Wind Pressure Rain since
9am
mm
Weather Cloud Vis
km
Sea
Height
m
Swell
Dir  Spd
kts
Gust
kts
hPa Trend Height
m
Period
s
Dir
29/11:30pm 19.8 SE 5 6 1015.7 - 0.0 - - - - - - -
29/11:00pm 19.9 SE 6 8 1015.8 - 0.0 - - - - - - -
29/10:30pm 20.6 SSE 5 7 1015.8 - 0.0 - - - - - - -
29/10:00pm 20.5 SSE 5 6 1015.8 - 0.0 - - - - - - -
29/09:30pm 21.2 SSE 5 7 1015.7 - 0.0 - - - - - - -
29/09:00pm 22.3 SSE 5 7 1015.6 - 0.0 - - - - - - -
29/08:30pm 20.2 S 4 5 1015.3 - 0.0 - - - - - - -
29/08:00pm 21.6 SSW 7 9 1015.2 - 0.0 - - - - - - -
29/07:30pm 21.9 SW 6 7 1015.0 - 0.0 - - - - - - -
29/07:00pm 21.9 SW 5 6 1014.9 - 0.0 - - - - - - -
29/06:30pm 22.5 WSW 5 6 1014.5 - 0.0 - - - - - - -
29/06:00pm 23.6 WSW 4 6 1014.1 - 0.0 - - - - - - -
29/05:30pm 25.4 WNW 5 5 1013.9 - 0.0 - - - - - - -
29/05:00pm 28.1 NNW 3 6 1013.6 - 0.0 - - - - - - -
29/04:30pm 32.4 ESE 4 6 1013.3 - 0.0 - - - - - - -
29/04:00pm 32.0 SE 4 7 1013.1 - 0.0 - - - - - - -
29/03:30pm 32.8 ESE 5 9 1013.1 - 0.0 - - - - - - -
29/03:00pm 32.8 ESE 7 11 1013.1 - 0.0 - - - - - - -
29/02:30pm 32.4 ESE 6 9 1013.1 - 0.0 - - - - - - -
29/02:00pm 32.3 SE 7 11 1013.1 - 0.0 - - - - - - -
29/01:30pm 32.2 SE 7 12 1013.3 - 0.0 - - - - - - -
29/01:00pm 31.4 SE 8 13 1013.5 - 0.0 - - - - - - -
29/12:30pm 31.2 SE 8 15 1013.9 - 0.0 - - - - - - -
29/12:00pm 31.2 SE 9 15 1014.4 - 0.0 - - - - - - -
29/11:30am 29.7 SE 9 15 1014.9 - 0.0 - - - - - - -
29/11:00am 30.2 SE 8 15 1015.3 - 0.0 - - - - - - -
29/10:30am 28.7 ESE 11 18 1015.8 - 0.0 - - - - - - -
29/10:00am 28.0 ESE 11 18 1016.1 - 0.0 - - - - - - -
29/09:30am 26.8 SE 11 17 1016.3 - 0.0 - - - - - - -
29/09:00am 25.7 SE 11 22 1016.4 - 0.0 - - - - - - -
29/08:30am 24.4 ESE 10 17 1016.4 - 0.0 - - - - - - -
29/08:00am 23.1 SE 10 14 1016.2 - 0.0 - - - - - - -
29/07:30am 21.7 SE 9 15 1016.1 - 0.0 - - - - - - -
29/07:00am 20.4 SE 6 10 1015.6 - 0.0 - - - - - - -
29/06:30am 20.4 SE 7 12 1015.4 - 0.0 - - - - - - -
29/06:00am 20.8 SE 7 13 1015.0 - 0.0 - - - - - - -
29/05:30am 20.9 SE 7 13 1014.7 - 0.0 - - - - - - -
29/05:00am 21.2 SE 8 12 1014.6 - 0.0 - - - - - - -
29/04:30am 21.7 SE 8 12 1014.5 - 0.0 - - - - - - -
29/04:00am 21.8 ESE 9 13 1014.4 - 0.0 - - - - - - -
29/03:30am 22.1 ESE 9 14 1014.4 - 0.0 - - - - - - -
29/03:00am 22.6 ESE 9 13 1014.3 - 0.0 - - - - - - -
29/02:30am 23.0 ESE 10 15 1014.5 - 0.0 - - - - - - -
29/02:00am 23.3 ESE 12 18 1014.6 - 0.0 - - - - - - -
29/01:30am 23.5 SE 12 18 1015.0 - 0.0 - - - - - - -
29/01:00am 23.7 SE 14 21 1015.2 - 0.0 - - - - - - -
29/12:30am 23.7 SE 10 17 1015.2 - 0.0 - - - - - - -
29/12:00am 24.1 SSE 9 16 1015.3 - 0.0 - - - - - - -
 
Date/Time
WST
Temp
°C
Wind Pressure Rain since
9am
mm
Weather Cloud Vis
km
Sea
Height
m
Swell
Dir  Spd
kts
Gust
kts
hPa Trend Height
m
Period
s
Dir
28/11:30pm 24.1 SE 9 14 1015.5 - 0.0 - - - - - - -
28/11:00pm 24.5 SE 10 16 1015.7 - 0.0 - - - - - - -
28/10:30pm 24.2 SSE 9 16 1015.8 - 0.0 - - - - - - -
28/10:00pm 23.5 SSE 7 11 1015.7 - 0.0 - - - - - - -
28/09:30pm 23.5 SSE 9 14 1015.9 - 0.0 - - - - - - -
28/09:00pm 24.2 S 11 16 1015.9 - 0.0 - - - - - - -
28/08:30pm 24.6 S 9 13 1015.7 - 0.0 - - - - - - -
28/08:00pm 25.0 SSE 11 15 1015.4 - 0.0 - - - - - - -
28/07:30pm 25.1 S 12 18 1015.1 - 0.0 - - - - - - -
28/07:00pm 25.3 S 12 19 1014.8 - 0.0 - - - - - - -
28/06:30pm 25.7 S 15 25 1014.2 - 0.0 - - - - - - -
28/06:02pm 26.0 S 16 26 1014.0 - 0.0 - - - - - - -
28/06:00pm 26.2 S 17 26 1014.0 - 0.0 - - - - - - -
28/05:58pm 26.3 S 17 26 1013.9 - 0.0 - - - - - - -
28/05:30pm 25.9 SW 6 15 1013.7 - 0.0 - - - - - - -
28/05:00pm 27.2 WSW 8 11 1013.0 - 0.0 - - - - - - -
28/04:30pm 28.0 W 8 11 1012.7 - 0.0 - - - - - - -
28/04:00pm 29.4 WNW 7 10 1012.1 - 0.0 - - - - - - -
28/03:30pm 30.7 NW 7 9 1012.1 - 0.0 - - - - - - -
28/03:00pm 30.9 NW 8 11 1012.0 - 0.0 - - - - - - -
28/02:30pm 31.8 NW 8 12 1012.0 - 0.0 - - - - - - -
28/02:00pm 32.1 NNW 5 9 1011.9 - 0.0 - - - - - - -
28/01:30pm 33.5 ESE 5 8 1011.9 - 0.0 - - - - - - -
28/01:00pm 33.9 ESE 5 8 1012.1 - 0.0 - - - - - - -
28/12:30pm 33.2 ESE 6 9 1012.6 - 0.0 - - - - - - -
28/12:00pm 32.5 ESE 7 11 1013.1 - 0.0 - - - - - - -
28/11:30am 32.3 SE 9 13 1013.4 - 0.0 - - - - - - -
28/11:00am 32.1 SE 8 15 1013.8 - 0.0 - - - - - - -
28/10:30am 31.9 SE 8 15 1014.1 - 0.0 - - - - - - -
28/10:00am 30.5 ESE 11 16 1014.4 - 0.0 - - - - - - -
28/09:30am 30.3 ESE 9 13 1014.4 - 0.0 - - - - - - -
28/09:00am 28.7 SE 8 14 1014.5 - 0.0 - - - - - - -
28/08:30am 27.2 SE 8 14 1014.4 - 0.0 - - - - - - -
28/08:00am 25.4 SE 9 15 1014.2 - 0.0 - - - - - - -
28/07:30am 22.4 SE 7 12 1014.1 - 0.0 - - - - - - -
28/07:00am 19.0 ESE 6 9 1013.7 - 0.0 - - - - - - -
28/06:30am 18.4 ESE 4 6 1013.8 - 0.0 - - - - - - -
28/06:00am 19.7 SE 5 7 1013.1 - 0.0 - - - - - - -
28/05:30am 20.1 SE 5 7 1012.9 - 0.0 - - - - - - -
28/05:00am 18.7 SE 5 6 1012.6 - 0.0 - - - - - - -
28/04:30am 20.2 SE 5 8 1012.4 - 0.0 - - - - - - -
28/04:00am 20.9 SSE 9 12 1012.5 - 0.0 - - - - - - -
28/03:30am 20.7 SSE 6 9 1012.6 - 0.0 - - - - - - -
28/03:00am 20.7 SSE 7 9 1012.6 - 0.0 - - - - - - -
28/02:30am 20.1 SSE 5 7 1012.9 - 0.0 - - - - - - -
28/02:00am 20.4 SE 5 8 1013.1 - 0.0 - - - - - - -
28/01:30am 21.2 SSE 7 9 1013.4 - 0.0 - - - - - - -
28/01:00am 22.1 S 8 11 1013.5 - 0.0 - - - - - - -
28/12:30am 21.8 S 7 9 1013.5 - 0.0 - - - - - - -
28/12:00am 22.1 S 6 9 1013.4 - 0.0 - - - - - - -
 
Date/Time
WST
Temp
°C
Wind Pressure Rain since
9am
mm
Weather Cloud Vis
km
Sea
Height
m
Swell
Dir  Spd
kts
Gust
kts
hPa Trend Height
m
Period
s
Dir
27/11:30pm 21.4 S 6 8 1013.5 - 0.0 - - - - - - -
27/11:00pm 20.0 S 5 7 1013.6 - 0.0 - - - - - - -
27/10:30pm 18.5 WSW 3 5 1013.8 - 0.0 - - - - - - -
27/10:00pm 19.5 CALM 0 0 1013.9 - 0.0 - - - - - - -
27/09:30pm 20.8 SSW 4 5 1013.8 - 0.0 - - - - - - -
27/09:00pm 21.5 S 7 9 1013.6 - 0.0 - - - - - - -
27/08:30pm 21.5 S 6 7 1013.4 - 0.0 - - - - - - -
27/08:00pm 21.6 W 3 5 1013.0 - 0.0 - - - - - - -
27/07:30pm 22.5 NW 5 5 1012.6 - 0.0 - - - - - - -
27/07:00pm 23.1 WNW 4 5 1012.3 - 0.0 - - - - - - -
27/06:30pm 23.7 WNW 5 6 1012.1 - 0.0 - - - - - - -
27/06:00pm 24.4 WNW 4 6 1011.8 - 0.0 - - - - - - -
27/05:30pm 25.6 NW 5 6 1011.5 - 0.0 - - - - - - -
27/05:00pm 27.8 NW 5 7 1011.4 - 0.0 - - - - - - -
27/04:30pm 29.5 NW 6 8 1011.2 - 0.0 - - - - - - -
27/04:00pm 31.0 NW 7 10 1011.2 - 0.0 - - - - - - -
27/03:30pm 32.2 NW 8 11 1011.1 - 0.0 - - - - - - -
27/03:00pm 33.0 NNW 7 10 1011.0 - 0.0 - - - - - - -
27/02:30pm 33.3 NNW 7 10 1010.9 - 0.0 - - - - - - -
27/02:00pm 34.1 NNW 6 9 1010.9 - 0.0 - - - - - - -
27/01:30pm 33.8 N 8 11 1011.2 - 0.0 - - - - - - -

Other Formats:

Comma delimited format used in spreadsheet applications
http://www.bom.gov.au/fwo/IDW60701/IDW60701.94200.axf

JavaScript Object Notation format (JSON) in row-major order
http://www.bom.gov.au/fwo/IDW60701/IDW60701.94200.json